Ely Colony, Nevada
Current Conditions -  °F | °C
As of 2:53 PM on Monday 22 Dec 2014 (Local Time) from KELY Reporting Station
Overcast Overcast  
Wind Chill: 38°   Ceiling: 4500
Heat Index: 46°   Visibility: 10mi
Dew Point: 32°   Wind: 21mph
Humidity: 58%   Direction: 320°NW
Pressure: 30.13"   Gusts: 36mph
Location:  39.5572°N, 115.033°W
Report Text: KELY 222253Z AUTO 32018G31KT 10SM OVC045 08/00 A3013 RMK AO2 PK WND 36031/2250 SLP164 T00780000
Loading
Personal Weather Stations






























Interactive Weather Map New forecast layout! Learn more

10-Day Weather Forecast

Advertisements
Track Severe Weather on mobile